createdAt,value
2022-09-14T00:01:24.743Z,99615.97
2022-09-14T00:03:57.340Z,99611.63
2022-09-14T00:06:24.097Z,99618.88
2022-09-14T00:08:55.721Z,99617.63
2022-09-14T00:11:24.089Z,99612.00
2022-09-14T00:13:51.726Z,99618.03
2022-09-14T00:16:28.240Z,99623.41
2022-09-14T00:19:00.247Z,99622.38
2022-09-14T00:21:27.617Z,99611.81
2022-09-14T00:23:54.042Z,99612.00
2022-09-14T00:26:22.931Z,99614.09
2022-09-14T00:28:51.666Z,99626.34
2022-09-14T00:31:19.630Z,99602.28
2022-09-14T00:33:48.013Z,99606.22
2022-09-14T00:36:17.828Z,99619.06
2022-09-14T00:38:45.747Z,99619.91
2022-09-14T00:41:16.737Z,99620.09
2022-09-14T00:44:07.172Z,99609.31
2022-09-14T00:46:43.960Z,99611.19
2022-09-14T00:49:17.052Z,99616.56
2022-09-14T00:51:58.198Z,99612.25
2022-09-14T00:54:25.867Z,99621.13
2022-09-14T00:56:53.270Z,99599.78
2022-09-14T00:59:24.060Z,99620.31
2022-09-14T01:01:50.879Z,99612.84
2022-09-14T01:04:17.371Z,99609.75
2022-09-14T01:06:52.526Z,99615.13
2022-09-14T01:09:32.655Z,99603.53
2022-09-14T01:12:02.074Z,99609.75
2022-09-14T01:14:50.518Z,99607.88
2022-09-14T01:17:27.683Z,99597.72
2022-09-14T01:20:15.324Z,99602.91
2022-09-14T01:23:03.752Z,99600.03
2022-09-14T01:26:04.332Z,99592.97
2022-09-14T01:28:49.962Z,99597.53
2022-09-14T01:31:54.574Z,99586.94
2022-09-14T01:34:44.207Z,99586.13
2022-09-14T01:37:21.898Z,99591.50
2022-09-14T01:39:55.103Z,99575.34
2022-09-14T01:42:26.107Z,99574.31
2022-09-14T01:44:57.931Z,99577.22
2022-09-14T01:47:36.557Z,99579.91
2022-09-14T01:50:10.383Z,99574.53
2022-09-14T01:52:44.800Z,99583.63
2022-09-14T01:55:20.097Z,99581.75
2022-09-14T01:57:53.512Z,99581.97
2022-09-14T02:00:21.505Z,99577.84
2022-09-14T02:02:52.120Z,99585.31
2022-09-14T02:05:41.118Z,99547.97
2022-09-14T02:08:08.810Z,99570.38
2022-09-14T02:10:35.604Z,99570.38
2022-09-14T02:13:02.359Z,99563.94
2022-09-14T02:15:28.781Z,99569.97
2022-09-14T02:17:55.402Z,99560.44
2022-09-14T02:20:31.152Z,99571.22
2022-09-14T02:22:57.574Z,99562.31
2022-09-14T02:25:24.009Z,99573.09
2022-09-14T02:27:51.242Z,99562.50
2022-09-14T02:30:18.237Z,99548.84
2022-09-14T02:32:59.415Z,99548.84
2022-09-14T02:35:38.463Z,99560.00
2022-09-14T02:38:14.902Z,99562.50
2022-09-14T02:40:46.383Z,99558.75
2022-09-14T02:43:32.835Z,99561.25
2022-09-14T02:46:10.032Z,99559.19
2022-09-14T02:48:52.086Z,99572.47
2022-09-14T02:51:21.420Z,99563.53
2022-09-14T02:54:03.662Z,99566.22
2022-09-14T02:56:31.459Z,99579.69
2022-09-14T02:58:57.928Z,99577.00
2022-09-14T03:01:25.345Z,99576.16
2022-09-14T03:03:51.759Z,99570.78
2022-09-14T03:06:18.334Z,99549.03
2022-09-14T03:08:45.071Z,99563.53
2022-09-14T03:11:11.962Z,99569.75
2022-09-14T03:13:38.622Z,99564.56
2022-09-14T03:16:10.685Z,99549.03
2022-09-14T03:18:38.550Z,99559.19
2022-09-14T03:21:07.731Z,99561.88
2022-09-14T03:23:39.280Z,99543.22
2022-09-14T03:26:26.182Z,99554.81
2022-09-14T03:28:54.319Z,99537.84
2022-09-14T03:31:21.348Z,99535.78
2022-09-14T03:33:47.947Z,99525.44
2022-09-14T03:36:17.278Z,99533.28
2022-09-14T03:38:49.461Z,99494.13
2022-09-14T03:41:16.223Z,99535.97
2022-09-14T03:43:43.689Z,99531.66
2022-09-14T03:46:15.752Z,99530.59
2022-09-14T03:48:42.705Z,99523.56
2022-09-14T03:51:10.656Z,99519.81
2022-09-14T03:53:37.699Z,99514.25
2022-09-14T03:56:10.560Z,99517.75
2022-09-14T03:58:37.434Z,99516.53
2022-09-14T04:01:09.538Z,99512.59
2022-09-14T04:03:36.817Z,99493.13
2022-09-14T04:06:07.061Z,99504.09
2022-09-14T04:08:35.581Z,99498.72
2022-09-14T04:11:10.673Z,99504.91
2022-09-14T04:13:37.816Z,99509.69
2022-09-14T04:16:04.357Z,99495.41
2022-09-14T04:18:31.303Z,99499.53
2022-09-14T04:21:02.403Z,99514.25
2022-09-14T04:23:30.991Z,99515.28
2022-09-14T04:25:57.525Z,99504.09
2022-09-14T04:28:24.694Z,99508.22
2022-09-14T04:30:55.758Z,99447.72
2022-09-14T04:33:22.461Z,99502.84
2022-09-14T04:35:59.678Z,99491.66
2022-09-14T04:38:26.113Z,99492.91
2022-09-14T04:40:52.515Z,99520.69
2022-09-14T04:43:18.992Z,99509.06
2022-09-14T04:45:45.660Z,99516.31
2022-09-14T04:48:12.075Z,99513.63
2022-09-14T04:50:38.462Z,99502.03
2022-09-14T04:53:05.001Z,99494.38
2022-09-14T04:55:31.421Z,99494.78
2022-09-14T04:57:58.455Z,99492.06
2022-09-14T05:00:24.918Z,99496.22
2022-09-14T05:02:51.393Z,99483.56
2022-09-14T05:05:17.875Z,99498.50
2022-09-14T05:07:44.293Z,99503.03
2022-09-14T05:10:11.938Z,99507.59
2022-09-14T05:12:38.334Z,99502.22
2022-09-14T05:15:05.455Z,99504.91
2022-09-14T05:17:35.288Z,99504.91
2022-09-14T05:20:02.281Z,99496.63
2022-09-14T05:22:28.734Z,99504.91
2022-09-14T05:24:55.140Z,99488.75
2022-09-14T05:27:21.528Z,99489.81
2022-09-14T05:29:47.915Z,99495.19
2022-09-14T05:32:14.453Z,99508.66
2022-09-14T05:34:40.904Z,99502.44
2022-09-14T05:37:07.295Z,99511.53
2022-09-14T05:39:33.707Z,99494.56
2022-09-14T05:42:00.116Z,99496.00
2022-09-14T05:44:26.490Z,99510.09
2022-09-14T05:46:52.974Z,99502.66
2022-09-14T05:49:19.462Z,99502.41
2022-09-14T05:51:46.333Z,99507.78
2022-09-14T05:54:12.745Z,99509.03
2022-09-14T05:56:39.200Z,99500.56
2022-09-14T05:59:06.025Z,99509.03
2022-09-14T06:01:33.026Z,99512.59
2022-09-14T06:04:02.390Z,99507.22
2022-09-14T06:06:30.800Z,99498.28
2022-09-14T06:08:57.997Z,99488.38
2022-09-14T06:11:28.442Z,99498.28
2022-09-14T06:13:56.558Z,99487.94
2022-09-14T06:16:25.643Z,99485.69
2022-09-14T06:18:52.091Z,99487.50
2022-09-14T06:21:20.179Z,99473.84
2022-09-14T06:23:48.107Z,99475.31
2022-09-14T06:26:15.301Z,99450.88
2022-09-14T06:28:42.463Z,99479.66
2022-09-14T06:31:12.727Z,99469.72
2022-09-14T06:33:43.080Z,99482.13
2022-09-14T06:36:12.716Z,99479.44
2022-09-14T06:38:40.635Z,99474.06
2022-09-14T06:41:09.302Z,99464.53
2022-09-14T06:43:39.106Z,99478.81
2022-09-14T06:46:09.687Z,99470.34
2022-09-14T06:48:38.937Z,99478.81
2022-09-14T06:51:17.590Z,99486.88
2022-09-14T06:53:45.447Z,99488.56
2022-09-14T06:56:12.538Z,99477.59
2022-09-14T06:58:39.591Z,99494.97
2022-09-14T07:01:15.023Z,99479.66
2022-09-14T07:03:46.964Z,99475.09
2022-09-14T07:06:19.756Z,99492.28
2022-09-14T07:08:46.978Z,99495.81
2022-09-14T07:11:15.442Z,99489.59
2022-09-14T07:13:41.884Z,99497.47
2022-09-14T07:16:08.683Z,99497.88
2022-09-14T07:18:35.777Z,99502.66
2022-09-14T07:21:05.709Z,99501.81
2022-09-14T07:23:33.024Z,99509.03
2022-09-14T07:26:05.058Z,99510.91
2022-09-14T07:28:33.054Z,99519.00
2022-09-14T07:31:00.351Z,99528.13
2022-09-14T07:33:27.226Z,99514.03
2022-09-14T07:35:54.670Z,99529.97
2022-09-14T07:38:35.775Z,99538.88
2022-09-14T07:41:08.012Z,99520.22
2022-09-14T07:43:35.009Z,99515.03
2022-09-14T07:46:04.204Z,99521.88
2022-09-14T07:48:31.789Z,99521.47
2022-09-14T07:51:10.284Z,99532.03
2022-09-14T07:53:45.610Z,99522.50
2022-09-14T07:56:13.900Z,99530.19
2022-09-14T07:58:40.921Z,99526.00
2022-09-14T08:01:12.014Z,99533.91
2022-09-14T08:03:40.226Z,99533.06
2022-09-14T08:06:13.116Z,99522.31
2022-09-14T08:08:42.409Z,99525.00
2022-09-14T08:11:30.162Z,99514.22
2022-09-14T08:14:03.345Z,99511.53
2022-09-14T08:16:31.587Z,99516.91
2022-09-14T08:19:03.828Z,99512.59
2022-09-14T08:21:32.071Z,99516.91
2022-09-14T08:24:01.396Z,99493.13
2022-09-14T08:26:28.640Z,99508.22
2022-09-14T08:28:56.216Z,99506.97
2022-09-14T08:31:27.039Z,99505.09
2022-09-14T08:33:57.164Z,99514.03
2022-09-14T08:36:24.925Z,99509.47
2022-09-14T08:38:51.474Z,99510.09
2022-09-14T08:41:27.529Z,99506.34
2022-09-14T08:43:54.701Z,99512.38
2022-09-14T08:46:31.827Z,99503.28
2022-09-14T08:48:59.559Z,99506.78
2022-09-14T08:51:26.884Z,99487.13
2022-09-14T08:53:56.372Z,99482.75
2022-09-14T08:56:26.708Z,99494.16
2022-09-14T08:59:24.950Z,99492.06
2022-09-14T09:02:12.905Z,99505.53
2022-09-14T09:04:51.904Z,99501.81
2022-09-14T09:07:35.688Z,99504.53
2022-09-14T09:10:04.969Z,99509.91
2022-09-14T09:12:40.681Z,99496.22
2022-09-14T09:15:21.642Z,99494.56
2022-09-14T09:17:52.840Z,99489.19
2022-09-14T09:20:44.118Z,99495.19
2022-09-14T09:23:22.536Z,99498.53
2022-09-14T09:25:51.829Z,99494.78
2022-09-14T09:28:19.868Z,99499.13
2022-09-14T09:30:47.049Z,99491.88
2022-09-14T09:33:22.439Z,99492.91
2022-09-14T09:35:50.327Z,99496.22
2022-09-14T09:38:21.499Z,99482.56
2022-09-14T09:40:58.545Z,99498.72
2022-09-14T09:43:47.956Z,99461.22
2022-09-14T09:46:12.416Z,99494.16
2022-09-14T09:48:43.118Z,99479.66
2022-09-14T09:51:14.092Z,99478.00
2022-09-14T09:54:02.572Z,99474.47
2022-09-14T09:56:37.276Z,99462.69
2022-09-14T09:59:20.735Z,99474.28
2022-09-14T10:01:47.270Z,99478.84
2022-09-14T10:04:30.661Z,99442.19
2022-09-14T10:06:57.909Z,99478.84
2022-09-14T10:09:29.356Z,99480.50
2022-09-14T10:12:04.286Z,99492.06
2022-09-14T10:14:34.790Z,99487.31
2022-09-14T10:17:22.003Z,99484.63
2022-09-14T10:19:50.103Z,99483.81
2022-09-14T10:22:26.623Z,99478.41
2022-09-14T10:25:20.184Z,99477.16
2022-09-14T10:27:56.037Z,99477.78
2022-09-14T10:30:25.968Z,99464.34
2022-09-14T10:32:55.140Z,99476.78
2022-09-14T10:35:25.300Z,99482.75
2022-09-14T10:38:06.103Z,99466.59
2022-09-14T10:40:43.940Z,99482.75
2022-09-14T10:43:26.837Z,99469.09
2022-09-14T10:46:02.182Z,99489.19
2022-09-14T10:48:37.580Z,99488.13
2022-09-14T10:51:35.031Z,99476.97
2022-09-14T10:54:16.487Z,99488.38
2022-09-14T10:57:03.515Z,99492.69
2022-09-14T10:59:56.095Z,99483.81
2022-09-14T11:02:40.586Z,99489.19
2022-09-14T11:05:23.700Z,99474.06
2022-09-14T11:07:54.843Z,99490.25
2022-09-14T11:10:21.205Z,99489.38
2022-09-14T11:13:02.716Z,99494.56
2022-09-14T11:15:52.019Z,99473.66
2022-09-14T11:18:29.977Z,99488.38
2022-09-14T11:21:29.020Z,99481.09
2022-09-14T11:24:11.874Z,99484.84
2022-09-14T11:26:44.116Z,99476.78
2022-09-14T11:29:25.761Z,99481.31
2022-09-14T11:32:20.526Z,99460.38
2022-09-14T11:35:09.927Z,99473.22
2022-09-14T11:37:44.287Z,99454.00
2022-09-14T11:40:29.065Z,99443.22
2022-09-14T11:43:13.809Z,99444.66
2022-09-14T11:46:01.038Z,99445.66
2022-09-14T11:48:42.828Z,99449.84
2022-09-14T11:51:15.265Z,99440.91
2022-09-14T11:53:43.678Z,99439.88
2022-09-14T11:56:28.101Z,99445.66
2022-09-14T11:58:56.107Z,99444.47
2022-09-14T12:01:30.295Z,99446.09
2022-09-14T12:03:56.842Z,99446.09
2022-09-14T12:06:35.601Z,99448.59
2022-09-14T12:09:17.369Z,99444.03
2022-09-14T12:11:45.506Z,99445.72
2022-09-14T12:14:35.902Z,99440.53
2022-09-14T12:17:39.269Z,99432.25
2022-09-14T12:20:37.533Z,99431.19
2022-09-14T12:23:31.970Z,99438.44
2022-09-14T12:26:10.516Z,99442.59
2022-09-14T12:28:37.275Z,99432.84
2022-09-14T12:31:03.655Z,99437.19
2022-09-14T12:33:33.455Z,99429.13
2022-09-14T12:36:02.719Z,99426.22
2022-09-14T12:38:29.043Z,99429.13
2022-09-14T12:41:10.667Z,99425.59
2022-09-14T12:43:37.387Z,99435.31
2022-09-14T12:46:03.836Z,99429.94
2022-09-14T12:48:52.314Z,99422.69
2022-09-14T12:51:31.423Z,99422.47
2022-09-14T12:54:23.045Z,99420.84
2022-09-14T12:56:58.391Z,99421.66
2022-09-14T12:59:33.655Z,99424.34
2022-09-14T13:02:21.901Z,99409.81
2022-09-14T13:04:53.691Z,99411.69
2022-09-14T13:07:22.781Z,99407.16
2022-09-14T13:09:55.099Z,99408.81
2022-09-14T13:12:41.245Z,99412.75
2022-09-14T13:15:18.392Z,99402.97
2022-09-14T13:18:24.747Z,99388.50
2022-09-14T13:20:53.054Z,99383.50
2022-09-14T13:23:32.041Z,99382.47
2022-09-14T13:25:59.170Z,99375.22
2022-09-14T13:28:29.887Z,99394.88
2022-09-14T13:31:01.575Z,99393.84
2022-09-14T13:33:30.994Z,99396.75
2022-09-14T13:36:01.464Z,99396.75
2022-09-14T13:38:34.439Z,99382.25
2022-09-14T13:41:11.739Z,99402.13
2022-09-14T13:43:39.804Z,99376.47
2022-09-14T13:46:08.189Z,99389.91
2022-09-14T13:48:37.339Z,99391.56
2022-09-14T13:51:05.563Z,99387.88
2022-09-14T13:53:40.908Z,99388.50
2022-09-14T13:56:16.506Z,99389.50
2022-09-14T13:58:42.931Z,99370.66
2022-09-14T14:01:09.773Z,99379.97
2022-09-14T14:03:36.160Z,99376.00
2022-09-14T14:06:28.097Z,99369.00
2022-09-14T14:08:59.214Z,99359.03
2022-09-14T14:11:31.987Z,99356.94
2022-09-14T14:14:10.611Z,99333.56
2022-09-14T14:16:37.461Z,99348.66
2022-09-14T14:19:04.358Z,99345.16
2022-09-14T14:21:33.072Z,99358.59
2022-09-14T14:24:26.554Z,99351.34
2022-09-14T14:26:55.682Z,99354.88
2022-09-14T14:29:22.790Z,99349.69
2022-09-14T14:31:50.210Z,99345.16
2022-09-14T14:34:22.865Z,99353.19
2022-09-14T14:36:50.242Z,99352.81
2022-09-14T14:39:18.708Z,99361.09
2022-09-14T14:41:45.472Z,99351.34
2022-09-14T14:44:24.814Z,99352.19
2022-09-14T14:46:51.761Z,99325.06
2022-09-14T14:49:20.332Z,99346.78
2022-09-14T14:51:47.518Z,99340.34
2022-09-14T14:54:18.615Z,99346.38
2022-09-14T14:56:47.290Z,99349.03
2022-09-14T14:59:24.163Z,99352.78
2022-09-14T15:01:52.367Z,99252.50
2022-09-14T15:04:19.162Z,99354.44
2022-09-14T15:06:46.919Z,99331.28
2022-09-14T15:09:17.533Z,99353.41
2022-09-14T15:11:44.718Z,99346.19
2022-09-14T15:14:13.320Z,99347.00
2022-09-14T15:16:39.803Z,99339.34
2022-09-14T15:19:06.365Z,99351.75
2022-09-14T15:21:32.784Z,99341.41
2022-09-14T15:23:59.259Z,99336.41
2022-09-14T15:26:26.478Z,99334.56
2022-09-14T15:28:52.927Z,99348.22
2022-09-14T15:31:19.878Z,99330.00
2022-09-14T15:33:46.339Z,99342.84
2022-09-14T15:36:12.916Z,99337.44
2022-09-14T15:38:39.283Z,99325.84
2022-09-14T15:41:05.843Z,99317.97
2022-09-14T15:43:32.239Z,99309.31
2022-09-14T15:46:03.461Z,99318.78
2022-09-14T15:48:29.930Z,99300.81
2022-09-14T15:51:00.504Z,99318.78
2022-09-14T15:53:27.151Z,99271.66
2022-09-14T15:55:53.523Z,99307.00
2022-09-14T15:58:19.943Z,99305.16
2022-09-14T16:00:46.376Z,99310.72
2022-09-14T16:03:12.920Z,99306.16
2022-09-14T16:05:40.075Z,99289.19
2022-09-14T16:08:06.716Z,99298.09
2022-09-14T16:10:33.526Z,99304.28
2022-09-14T16:13:00.200Z,99293.50
2022-09-14T16:15:26.630Z,99285.44
2022-09-14T16:17:53.855Z,99292.25
2022-09-14T16:20:20.830Z,99296.81
2022-09-14T16:22:48.318Z,99284.22
2022-09-14T16:25:15.740Z,99276.94
2022-09-14T16:27:42.798Z,99269.91
2022-09-14T16:30:09.849Z,99287.47
2022-09-14T16:32:36.521Z,99283.72
2022-09-14T16:35:07.928Z,99269.69
2022-09-14T16:37:34.837Z,99279.19
2022-09-14T16:40:01.501Z,99278.16
2022-09-14T16:42:28.012Z,99276.28
2022-09-14T16:44:54.374Z,99275.88
2022-09-14T16:47:20.927Z,99287.03
2022-09-14T16:49:47.338Z,99278.13
2022-09-14T16:52:13.754Z,99270.50
2022-09-14T16:54:40.130Z,99269.44
2022-09-14T16:57:06.531Z,99278.94
2022-09-14T16:59:32.963Z,99271.72
2022-09-14T17:01:59.735Z,99271.47
2022-09-14T17:04:26.308Z,99252.03
2022-09-14T17:06:55.034Z,99272.53
2022-09-14T17:09:27.160Z,99270.66
2022-09-14T17:11:54.669Z,99265.09
2022-09-14T17:14:24.306Z,99259.47
2022-09-14T17:16:50.966Z,99263.41
2022-09-14T17:19:18.187Z,99258.25
2022-09-14T17:21:45.823Z,99262.38
2022-09-14T17:24:14.043Z,99260.31
2022-09-14T17:26:41.508Z,99263.19
2022-09-14T17:29:08.509Z,99255.97
2022-09-14T17:31:39.524Z,99257.03
2022-09-14T17:34:08.970Z,99265.28
2022-09-14T17:36:36.120Z,99270.44
2022-09-14T17:39:09.193Z,99252.91
2022-09-14T17:41:38.931Z,99265.28
2022-09-14T17:44:06.648Z,99269.84
2022-09-14T17:46:33.839Z,99267.97
2022-09-14T17:49:03.961Z,99257.19
2022-09-14T17:51:31.871Z,99259.88
2022-09-14T17:54:00.298Z,99259.06
2022-09-14T17:56:28.238Z,99264.44
2022-09-14T17:59:16.075Z,99259.06
2022-09-14T18:01:42.527Z,99257.22
2022-09-14T18:04:12.005Z,99261.97
2022-09-14T18:06:42.006Z,99269.03
2022-09-14T18:09:15.516Z,99261.75
2022-09-14T18:11:42.828Z,99260.69
2022-09-14T18:14:12.955Z,99244.56
2022-09-14T18:16:40.659Z,99256.38
2022-09-14T18:19:07.578Z,99261.97
2022-09-14T18:21:34.241Z,99269.84
2022-09-14T18:24:00.858Z,99261.16
2022-09-14T18:26:27.289Z,99267.97
2022-09-14T18:28:56.171Z,99263.63
2022-09-14T18:31:23.007Z,99259.47
2022-09-14T18:33:52.269Z,99263.63
2022-09-14T18:36:20.235Z,99267.34
2022-09-14T18:38:48.443Z,99267.34
2022-09-14T18:41:16.558Z,99272.13
2022-09-14T18:43:45.341Z,99274.63
2022-09-14T18:46:12.278Z,99266.13
2022-09-14T18:48:40.531Z,99276.50
2022-09-14T18:51:07.361Z,99281.03
2022-09-14T18:53:34.231Z,99277.53
2022-09-14T18:56:06.496Z,99280.22
2022-09-14T18:58:38.249Z,99277.53
2022-09-14T19:01:05.584Z,99252.91
2022-09-14T19:03:32.797Z,99271.53
2022-09-14T19:06:05.639Z,99269.63
2022-09-14T19:08:32.091Z,99272.34
2022-09-14T19:11:07.215Z,99271.16
2022-09-14T19:13:36.793Z,99262.44
2022-09-14T19:16:14.867Z,99257.72
2022-09-14T19:18:43.074Z,99270.69
2022-09-14T19:21:12.199Z,99277.72
2022-09-14T19:23:39.159Z,99264.50
2022-09-14T19:26:20.922Z,99267.19
2022-09-14T19:28:47.311Z,99266.13
2022-09-14T19:31:17.274Z,99265.50
2022-09-14T19:33:45.674Z,99263.66
2022-09-14T19:36:22.711Z,99270.91
2022-09-14T19:38:51.132Z,99262.81
2022-09-14T19:41:18.837Z,99254.75
2022-09-14T19:43:45.314Z,99253.91
2022-09-14T19:46:14.852Z,99268.22
2022-09-14T19:48:42.606Z,99255.78
2022-09-14T19:51:15.236Z,99236.56
2022-09-14T19:53:42.553Z,99254.97
2022-09-14T19:56:16.753Z,99249.59
2022-09-14T19:58:48.499Z,99244.81
2022-09-14T20:01:17.214Z,99232.25
2022-09-14T20:03:45.378Z,99247.91
2022-09-14T20:06:19.298Z,99245.88
2022-09-14T20:08:46.903Z,99249.78
2022-09-14T20:11:19.189Z,99250.81
2022-09-14T20:13:48.402Z,99240.50
2022-09-14T20:16:22.494Z,99240.03
2022-09-14T20:18:49.755Z,99242.53
2022-09-14T20:21:19.291Z,99242.53
2022-09-14T20:24:11.558Z,99251.44
2022-09-14T20:26:32.977Z,99250.81
2022-09-14T20:29:01.203Z,99247.09
2022-09-14T20:31:28.985Z,99248.97
2022-09-14T20:33:56.618Z,99246.28
2022-09-14T20:36:25.160Z,99241.72
2022-09-14T20:38:55.190Z,99239.66
2022-09-14T20:41:23.731Z,99241.91
2022-09-14T20:43:50.727Z,99243.59
2022-09-14T20:46:30.844Z,99256.22
2022-09-14T20:48:58.221Z,99250.00
2022-09-14T20:51:25.324Z,99251.66
2022-09-14T20:53:52.003Z,99252.50
2022-09-14T20:56:21.066Z,99256.81
2022-09-14T20:58:48.581Z,99243.78
2022-09-14T21:01:17.806Z,99244.41
2022-09-14T21:03:46.145Z,99254.38
2022-09-14T21:06:15.380Z,99251.44
2022-09-14T21:08:42.977Z,99253.31
2022-09-14T21:11:12.673Z,99259.50
2022-09-14T21:13:39.727Z,99252.28
2022-09-14T21:16:09.192Z,99249.78
2022-09-14T21:18:35.833Z,99243.34
2022-09-14T21:21:11.473Z,99222.28
2022-09-14T21:23:38.274Z,99238.19
2022-09-14T21:26:06.855Z,99228.44
2022-09-14T21:28:37.644Z,99224.94
2022-09-14T21:31:08.695Z,99224.13
2022-09-14T21:33:37.074Z,99227.63
2022-09-14T21:36:14.215Z,99227.03
2022-09-14T21:38:41.282Z,99217.91
2022-09-14T21:41:10.279Z,99232.41
2022-09-14T21:43:38.046Z,99221.47
2022-09-14T21:46:05.386Z,99191.69
2022-09-14T21:48:32.085Z,99228.91
2022-09-14T21:51:06.179Z,99211.34
2022-09-14T21:53:32.865Z,99222.69
2022-09-14T21:55:59.297Z,99214.59
2022-09-14T21:58:25.763Z,99210.25
2022-09-14T22:00:59.909Z,99215.63
2022-09-14T22:03:26.603Z,99197.03
2022-09-14T22:06:05.358Z,99214.00
2022-09-14T22:08:33.485Z,99222.06
2022-09-14T22:11:08.881Z,99216.69
2022-09-14T22:13:35.326Z,99218.53
2022-09-14T22:16:09.717Z,99212.31
2022-09-14T22:18:37.788Z,99198.72
2022-09-14T22:21:05.271Z,99205.34
2022-09-14T22:23:33.583Z,99210.69
2022-09-14T22:26:04.640Z,99206.94
2022-09-14T22:28:31.166Z,99214.19
2022-09-14T22:30:57.867Z,99211.50
2022-09-14T22:33:25.332Z,99203.63
2022-09-14T22:35:58.197Z,99203.63
2022-09-14T22:38:26.275Z,99205.31
2022-09-14T22:40:58.291Z,99199.31
2022-09-14T22:43:26.384Z,99186.69
2022-09-14T22:45:53.057Z,99127.03
2022-09-14T22:48:20.808Z,99202.81
2022-09-14T22:50:49.264Z,99191.44
2022-09-14T22:53:16.575Z,99186.84
2022-09-14T22:55:44.703Z,99190.38
2022-09-14T22:58:14.023Z,99189.56
2022-09-14T23:00:41.147Z,99183.34
2022-09-14T23:03:09.498Z,99191.63
2022-09-14T23:05:37.601Z,99193.31
2022-09-14T23:08:06.638Z,99184.59
2022-09-14T23:10:36.856Z,99190.00
2022-09-14T23:13:03.480Z,99194.31
2022-09-14T23:15:30.019Z,99198.06
2022-09-14T23:17:56.571Z,99198.06
2022-09-14T23:20:22.960Z,99150.97
2022-09-14T23:22:49.391Z,99194.78
2022-09-14T23:25:15.936Z,99200.78
2022-09-14T23:27:42.315Z,99191.03
2022-09-14T23:30:09.238Z,99197.03
2022-09-14T23:32:35.663Z,99191.03
2022-09-14T23:35:02.041Z,99188.31
2022-09-14T23:37:28.435Z,99181.09
2022-09-14T23:39:54.881Z,99189.19
2022-09-14T23:42:21.344Z,99199.09
2022-09-14T23:44:47.687Z,99193.72
2022-09-14T23:47:14.088Z,99199.09
2022-09-14T23:49:40.468Z,99199.34
2022-09-14T23:52:06.835Z,99186.69
2022-09-14T23:54:33.267Z,99191.03
2022-09-14T23:56:59.687Z,99174.09
2022-09-14T23:59:26.043Z,99185.63
